Oneida, IL (61467)

02:42 AM CST del 22 Febbraio 2017 (GMT -0600)
Northwest Oneida | | Change Station
Avvisi attivi: Dense Fog Advisory

Alt. 814 ft 41.08 °N, 90.23 °W | Updated 23 seconds ago

Molto nuvoloso
Molto nuvoloso
50.5 °F
Sembra 50.5 °F
N
0.0
Vento Variabile Vento da SSE
Gusts 0.0 mph

Oggi
Massima -- | Minima -- °F
--% Possibilità di precip.
Ieri
Massima -- | Minima -- °F
Precip. -- in
Pressione 29.84 in
Visibilità 0.2 miglia
Nuvole Coperto 200 ft
Punto di rugiada 50 °F
Umidità 99%
Piovosità 0.00 in
Spessore del manto nevoso Non disponibile.
6:45 AM 5:44 PM
Luna calante, 19% visible
METAR KGBG 220835Z AUTO 19003KT M1/4SM FG OVC002 08/08 A2984 RMK AO2 T00760076
Pressione 29.84 in
Visibilità 0.2 miglia
Nuvole Coperto 200 ft
Punto di rugiada 50 °F
Umidità 99%
Piovosità 0.00 in
Spessore del manto nevoso Non disponibile.
6:45 AM 5:44 PM
Luna calante, 19% visible
METAR KGBG 220835Z AUTO 19003KT M1/4SM FG OVC002 08/08 A2984 RMK AO2 T00760076

Get Your Daily Forecast Email!

Thanks for signing up!

Be on the lookout for a verification email in your inbox.

You'll start receiving the daily forecast at 8 AM.

×

10-Day Weather Forecast

Almanac

Astronomia

Feb. 22, 2017 Alba Tramonto
Ora attuale
Crepuscolo civile
Crepuscolo nautico
Crepuscolo astronomico
Luna
Estensione della luce visibile
Lunghezza del giorno
Tomorrow will be .
, % of the Moon is Illuminated

Gli estremi di oggi

State Highs State Lows

Community

WunderPhotos

Upload Photos

1,962,540 foto caricate!

WunderBlog® & News

Nearby

Qualità dell'aria

  Qualità dell'aria Indice AQ Inquinante
Not available.

Profondità neve

Stazione Profondità Altitudine

Attività sismica

Città  Distanza Mag. Data & Ora
Minimo Magnitudo Mostrato è 2.5.

Temperature delle acque costiere

Località Temperatura

Stations

Stazioni meteo nelle vicinanze

Ubicazione della stazione Temp. Raffreddamento del vento Punto di rugiada Umidità Vento Precip. Alt. Aggiornato Tipo
                   

Watches & Warnings

Dense Fog Advisory
Issued: 22:51 CST Feb. 21, 2017 – National Weather Service

... Dense fog advisory in effect until 9 am CST Wednesday...

The National Weather Service in Lincoln has issued a dense fog
advisory... which is in effect until 9 am CST Wednesday.

* Visibility... will continue to degrade overnight, frequently
falling below one quarter mile at times.

* Impacts... areas of low visibility and rapid changes in visibility
will cause hazardous driving conditions.

Precautionary/preparedness actions...

A dense fog advisory means visibilities will frequently be
reduced to less than one quarter mile. If driving... slow down...
use your headlights... and leave plenty of distance ahead of you.



Bak